Terminal Aerodrome Forecast
Issued by NWS

Home | Current Version | Previous Version | Text Only | Print | Product List | Glossary On
Versions: 1 2 3 4 5 6 7 8 9 10 11 12 13 14 15 16 17 18 19 20 21 22 23 24
821
FTUS43 KDTX 140520
TAFMBS
TAF
KMBS 140520Z 1406/1506 01012KT 5SM -SHSN BKN025 OVC035
     FM140700 01012KT P6SM OVC035
     FM141100 33009KT P6SM SCT010 SCT100
     FM141800 29007KT P6SM BKN020 OVC150
     FM150300 23005KT P6SM BKN030=

USA.gov is the U.S. government's official web portal to all federal, state and local government web resources and services.